sensor_id;sensor_type;location;lat;lon;timestamp;temperature;humidity
15483;DHT22;7843;50.330;7.312;2023-01-01T00:01:41;10.30;99.30
15483;DHT22;7843;50.330;7.312;2023-01-01T00:04:11;10.20;99.40
15483;DHT22;7843;50.330;7.312;2023-01-01T00:06:39;10.30;99.40
15483;DHT22;7843;50.330;7.312;2023-01-01T00:09:06;10.30;99.40
15483;DHT22;7843;50.330;7.312;2023-01-01T00:11:51;10.40;99.00
15483;DHT22;7843;50.330;7.312;2023-01-01T00:14:18;10.60;98.80
15483;DHT22;7843;50.330;7.312;2023-01-01T00:16:44;10.50;98.80
15483;DHT22;7843;50.330;7.312;2023-01-01T00:19:11;10.60;98.70
15483;DHT22;7843;50.330;7.312;2023-01-01T00:21:38;10.60;98.40
15483;DHT22;7843;50.330;7.312;2023-01-01T00:24:05;10.60;98.40
15483;DHT22;7843;50.330;7.312;2023-01-01T00:26:32;10.70;98.40
15483;DHT22;7843;50.330;7.312;2023-01-01T00:29:00;10.70;98.20
15483;DHT22;7843;50.330;7.312;2023-01-01T00:31:27;10.70;98.10
15483;DHT22;7843;50.330;7.312;2023-01-01T00:33:55;10.70;98.20
15483;DHT22;7843;50.330;7.312;2023-01-01T00:36:24;10.70;97.70
15483;DHT22;7843;50.330;7.312;2023-01-01T00:38:51;10.80;97.70
15483;DHT22;7843;50.330;7.312;2023-01-01T00:41:18;10.60;98.00
15483;DHT22;7843;50.330;7.312;2023-01-01T00:43:45;10.60;98.10
15483;DHT22;7843;50.330;7.312;2023-01-01T00:46:12;10.50;98.30
15483;DHT22;7843;50.330;7.312;2023-01-01T00:48:39;10.40;98.50
15483;DHT22;7843;50.330;7.312;2023-01-01T00:51:06;10.50;98.50
15483;DHT22;7843;50.330;7.312;2023-01-01T00:53:33;10.40;98.70
15483;DHT22;7843;50.330;7.312;2023-01-01T00:56:00;10.60;98.30
15483;DHT22;7843;50.330;7.312;2023-01-01T00:58:27;10.60;98.10
15483;DHT22;7843;50.330;7.312;2023-01-01T01:00:54;10.60;98.20
15483;DHT22;7843;50.330;7.312;2023-01-01T01:03:21;10.60;98.30
15483;DHT22;7843;50.330;7.312;2023-01-01T01:08:29;10.80;97.80
15483;DHT22;7843;50.330;7.312;2023-01-01T01:11:11;10.80;97.60
15483;DHT22;7843;50.330;7.312;2023-01-01T01:13:39;10.70;97.60
15483;DHT22;7843;50.330;7.312;2023-01-01T01:16:11;10.70;97.80
15483;DHT22;7843;50.330;7.312;2023-01-01T01:18:38;10.70;97.70
15483;DHT22;7843;50.330;7.312;2023-01-01T01:21:05;10.70;97.80
15483;DHT22;7843;50.330;7.312;2023-01-01T01:23:32;10.70;97.70
15483;DHT22;7843;50.330;7.312;2023-01-01T01:26:11;10.80;97.50
15483;DHT22;7843;50.330;7.312;2023-01-01T01:28:39;10.80;97.40
15483;DHT22;7843;50.330;7.312;2023-01-01T01:31:09;10.80;97.40
15483;DHT22;7843;50.330;7.312;2023-01-01T01:33:36;10.70;97.70
15483;DHT22;7843;50.330;7.312;2023-01-01T01:36:04;10.60;98.00
15483;DHT22;7843;50.330;7.312;2023-01-01T01:38:31;10.70;97.60
15483;DHT22;7843;50.330;7.312;2023-01-01T01:40:58;10.60;97.70
15483;DHT22;7843;50.330;7.312;2023-01-01T01:46:13;10.70;97.60
15483;DHT22;7843;50.330;7.312;2023-01-01T01:48:47;10.60;97.80
15483;DHT22;7843;50.330;7.312;2023-01-01T01:51:17;10.60;98.00
15483;DHT22;7843;50.330;7.312;2023-01-01T01:53:49;10.60;98.10
15483;DHT22;7843;50.330;7.312;2023-01-01T01:56:34;10.60;98.10
15483;DHT22;7843;50.330;7.312;2023-01-01T01:59:03;10.60;98.40
15483;DHT22;7843;50.330;7.312;2023-01-01T02:01:29;10.50;98.50
15483;DHT22;7843;50.330;7.312;2023-01-01T02:03:58;10.60;98.30
15483;DHT22;7843;50.330;7.312;2023-01-01T02:06:29;10.60;98.50
15483;DHT22;7843;50.330;7.312;2023-01-01T02:08:58;10.60;98.50
15483;DHT22;7843;50.330;7.312;2023-01-01T02:11:26;10.50;98.80
15483;DHT22;7843;50.330;7.312;2023-01-01T02:13:53;10.40;99.00
15483;DHT22;7843;50.330;7.312;2023-01-01T02:16:46;10.40;99.40
15483;DHT22;7843;50.330;7.312;2023-01-01T02:19:55;10.30;99.50
15483;DHT22;7843;50.330;7.312;2023-01-01T02:25:27;10.20;99.90
15483;DHT22;7843;50.330;7.312;2023-01-01T02:28:01;10.40;99.70
15483;DHT22;7843;50.330;7.312;2023-01-01T02:30:33;10.40;99.70
15483;DHT22;7843;50.330;7.312;2023-01-01T02:33:06;10.50;99.50
15483;DHT22;7843;50.330;7.312;2023-01-01T02:35:39;10.50;99.60
15483;DHT22;7843;50.330;7.312;2023-01-01T02:38:22;10.50;99.60
15483;DHT22;7843;50.330;7.312;2023-01-01T02:40:56;10.40;99.70
15483;DHT22;7843;50.330;7.312;2023-01-01T02:43:25;10.30;99.90
15483;DHT22;7843;50.330;7.312;2023-01-01T02:45:55;10.40;99.90
15483;DHT22;7843;50.330;7.312;2023-01-01T02:54:07;10.20;99.90
15483;DHT22;7843;50.330;7.312;2023-01-01T03:07:40;10.10;99.90
15483;DHT22;7843;50.330;7.312;2023-01-01T03:10:16;10.20;99.90
15483;DHT22;7843;50.330;7.312;2023-01-01T03:13:08;10.10;99.90
15483;DHT22;7843;50.330;7.312;2023-01-01T03:18:23;10.00;99.90
15483;DHT22;7843;50.330;7.312;2023-01-01T03:20:54;10.00;99.90
15483;DHT22;7843;50.330;7.312;2023-01-01T03:23:27;10.00;99.90
15483;DHT22;7843;50.330;7.312;2023-01-01T03:25:59;10.00;99.90
15483;DHT22;7843;50.330;7.312;2023-01-01T03:28:34;10.00;99.90
15483;DHT22;7843;50.330;7.312;2023-01-01T03:31:02;10.00;99.90
15483;DHT22;7843;50.330;7.312;2023-01-01T03:33:36;10.00;99.90
15483;DHT22;7843;50.330;7.312;2023-01-01T03:36:08;10.10;99.90
15483;DHT22;7843;50.330;7.312;2023-01-01T03:38:42;10.10;99.90
15483;DHT22;7843;50.330;7.312;2023-01-01T03:41:26;10.10;99.90
15483;DHT22;7843;50.330;7.312;2023-01-01T03:44:12;10.10;99.90
15483;DHT22;7843;50.330;7.312;2023-01-01T03:46:40;10.10;99.90
15483;DHT22;7843;50.330;7.312;2023-01-01T03:49:09;10.00;99.90
15483;DHT22;7843;50.330;7.312;2023-01-01T03:51:44;10.00;99.90
15483;DHT22;7843;50.330;7.312;2023-01-01T03:54:36;10.00;99.90
15483;DHT22;7843;50.330;7.312;2023-01-01T04:00:06;10.00;99.90
15483;DHT22;7843;50.330;7.312;2023-01-01T04:03:03;10.00;99.90
15483;DHT22;7843;50.330;7.312;2023-01-01T04:05:34;9.90;99.90
15483;DHT22;7843;50.330;7.312;2023-01-01T04:08:02;9.80;99.90
15483;DHT22;7843;50.330;7.312;2023-01-01T04:10:30;9.90;99.90
15483;DHT22;7843;50.330;7.312;2023-01-01T04:13:02;10.00;99.90
15483;DHT22;7843;50.330;7.312;2023-01-01T04:15:30;10.10;99.90
15483;DHT22;7843;50.330;7.312;2023-01-01T04:17:57;10.20;99.90
15483;DHT22;7843;50.330;7.312;2023-01-01T04:20:24;10.10;99.90
15483;DHT22;7843;50.330;7.312;2023-01-01T04:22:54;10.10;99.90
15483;DHT22;7843;50.330;7.312;2023-01-01T04:25:21;10.20;99.90
15483;DHT22;7843;50.330;7.312;2023-01-01T04:27:47;10.20;99.90
15483;DHT22;7843;50.330;7.312;2023-01-01T04:30:14;10.20;99.90
15483;DHT22;7843;50.330;7.312;2023-01-01T04:32:41;10.30;99.90
15483;DHT22;7843;50.330;7.312;2023-01-01T04:35:09;10.40;99.90
15483;DHT22;7843;50.330;7.312;2023-01-01T04:37:39;10.40;99.90
15483;DHT22;7843;50.330;7.312;2023-01-01T04:40:07;10.40;99.90
15483;DHT22;7843;50.330;7.312;2023-01-01T04:42:34;10.40;99.90
15483;DHT22;7843;50.330;7.312;2023-01-01T04:45:01;10.50;99.90
15483;DHT22;7843;50.330;7.312;2023-01-01T04:47:28;10.40;99.90
15483;DHT22;7843;50.330;7.312;2023-01-01T04:49:54;10.40;99.90
15483;DHT22;7843;50.330;7.312;2023-01-01T04:52:21;10.40;99.90
15483;DHT22;7843;50.330;7.312;2023-01-01T04:54:48;10.30;99.90
15483;DHT22;7843;50.330;7.312;2023-01-01T04:57:14;10.30;99.90
15483;DHT22;7843;50.330;7.312;2023-01-01T04:59:41;10.30;99.90
15483;DHT22;7843;50.330;7.312;2023-01-01T05:02:08;10.30;99.90
15483;DHT22;7843;50.330;7.312;2023-01-01T05:04:34;10.30;99.90
15483;DHT22;7843;50.330;7.312;2023-01-01T05:07:01;10.40;99.90
15483;DHT22;7843;50.330;7.312;2023-01-01T05:09:28;10.50;99.90
15483;DHT22;7843;50.330;7.312;2023-01-01T05:11:54;10.70;99.80
15483;DHT22;7843;50.330;7.312;2023-01-01T05:14:21;10.70;99.60
15483;DHT22;7843;50.330;7.312;2023-01-01T05:16:48;10.70;99.50
15483;DHT22;7843;50.330;7.312;2023-01-01T05:19:15;10.60;99.70
15483;DHT22;7843;50.330;7.312;2023-01-01T05:21:42;10.50;99.90
15483;DHT22;7843;50.330;7.312;2023-01-01T05:24:11;10.50;99.90
15483;DHT22;7843;50.330;7.312;2023-01-01T05:26:40;10.40;99.90
15483;DHT22;7843;50.330;7.312;2023-01-01T05:29:07;10.50;99.90
15483;DHT22;7843;50.330;7.312;2023-01-01T05:31:39;10.50;99.90
15483;DHT22;7843;50.330;7.312;2023-01-01T05:34:05;10.60;99.90
15483;DHT22;7843;50.330;7.312;2023-01-01T05:36:35;10.60;99.90
15483;DHT22;7843;50.330;7.312;2023-01-01T05:39:05;10.50;99.90
15483;DHT22;7843;50.330;7.312;2023-01-01T05:41:32;10.40;99.90
15483;DHT22;7843;50.330;7.312;2023-01-01T05:44:03;10.50;99.90
15483;DHT22;7843;50.330;7.312;2023-01-01T05:46:30;10.50;99.90
15483;DHT22;7843;50.330;7.312;2023-01-01T05:48:57;10.60;99.80
15483;DHT22;7843;50.330;7.312;2023-01-01T05:51:26;10.60;99.80
15483;DHT22;7843;50.330;7.312;2023-01-01T05:53:53;10.50;99.90
15483;DHT22;7843;50.330;7.312;2023-01-01T05:56:21;10.40;99.90
15483;DHT22;7843;50.330;7.312;2023-01-01T05:58:48;10.40;99.90
15483;DHT22;7843;50.330;7.312;2023-01-01T06:01:26;10.40;99.90
15483;DHT22;7843;50.330;7.312;2023-01-01T06:03:54;10.40;99.90
15483;DHT22;7843;50.330;7.312;2023-01-01T06:06:26;10.40;99.90
15483;DHT22;7843;50.330;7.312;2023-01-01T06:08:59;10.50;99.90
15483;DHT22;7843;50.330;7.312;2023-01-01T06:11:27;10.50;99.90
15483;DHT22;7843;50.330;7.312;2023-01-01T06:13:55;10.60;99.90
15483;DHT22;7843;50.330;7.312;2023-01-01T06:16:23;10.70;99.90
15483;DHT22;7843;50.330;7.312;2023-01-01T06:18:50;10.70;99.90
15483;DHT22;7843;50.330;7.312;2023-01-01T06:21:20;10.80;99.90
15483;DHT22;7843;50.330;7.312;2023-01-01T06:23:47;10.80;99.90
15483;DHT22;7843;50.330;7.312;2023-01-01T06:26:19;10.80;99.90
15483;DHT22;7843;50.330;7.312;2023-01-01T06:28:47;10.80;99.90
15483;DHT22;7843;50.330;7.312;2023-01-01T06:31:16;10.90;99.80
15483;DHT22;7843;50.330;7.312;2023-01-01T06:33:43;11.00;99.40
15483;DHT22;7843;50.330;7.312;2023-01-01T06:36:12;11.00;99.40
15483;DHT22;7843;50.330;7.312;2023-01-01T06:38:41;11.00;99.40
15483;DHT22;7843;50.330;7.312;2023-01-01T06:41:19;11.10;99.10
15483;DHT22;7843;50.330;7.312;2023-01-01T06:43:46;11.20;98.60
15483;DHT22;7843;50.330;7.312;2023-01-01T06:46:26;11.20;98.50
15483;DHT22;7843;50.330;7.312;2023-01-01T06:48:59;11.10;98.50
15483;DHT22;7843;50.330;7.312;2023-01-01T06:51:28;11.10;98.60
15483;DHT22;7843;50.330;7.312;2023-01-01T06:54:00;11.00;98.50
15483;DHT22;7843;50.330;7.312;2023-01-01T06:56:27;11.10;98.30
15483;DHT22;7843;50.330;7.312;2023-01-01T06:58:54;11.10;98.60
15483;DHT22;7843;50.330;7.312;2023-01-01T07:01:23;11.10;98.30
15483;DHT22;7843;50.330;7.312;2023-01-01T07:03:52;11.20;98.30
15483;DHT22;7843;50.330;7.312;2023-01-01T07:06:19;11.20;98.40
15483;DHT22;7843;50.330;7.312;2023-01-01T07:08:46;11.20;98.40
15483;DHT22;7843;50.330;7.312;2023-01-01T07:11:13;11.10;98.50
15483;DHT22;7843;50.330;7.312;2023-01-01T07:13:40;11.20;98.40
15483;DHT22;7843;50.330;7.312;2023-01-01T07:16:07;11.20;98.50
15483;DHT22;7843;50.330;7.312;2023-01-01T07:18:37;11.20;98.40
15483;DHT22;7843;50.330;7.312;2023-01-01T07:21:05;11.20;98.30
15483;DHT22;7843;50.330;7.312;2023-01-01T07:23:34;11.20;98.50
15483;DHT22;7843;50.330;7.312;2023-01-01T07:26:01;11.20;98.30
15483;DHT22;7843;50.330;7.312;2023-01-01T07:28:27;11.30;98.10
15483;DHT22;7843;50.330;7.312;2023-01-01T07:30:54;11.20;97.80
15483;DHT22;7843;50.330;7.312;2023-01-01T07:33:22;11.20;98.20
15483;DHT22;7843;50.330;7.312;2023-01-01T07:35:49;11.20;98.10
15483;DHT22;7843;50.330;7.312;2023-01-01T07:38:16;11.10;98.20
15483;DHT22;7843;50.330;7.312;2023-01-01T07:40:43;11.10;98.30
15483;DHT22;7843;50.330;7.312;2023-01-01T07:43:09;11.10;98.30
15483;DHT22;7843;50.330;7.312;2023-01-01T07:45:37;11.20;98.30
15483;DHT22;7843;50.330;7.312;2023-01-01T07:48:04;11.20;98.40
15483;DHT22;7843;50.330;7.312;2023-01-01T07:50:31;11.40;97.40
15483;DHT22;7843;50.330;7.312;2023-01-01T07:52:58;11.50;97.50
15483;DHT22;7843;50.330;7.312;2023-01-01T07:55:26;11.40;97.80
15483;DHT22;7843;50.330;7.312;2023-01-01T07:57:52;11.40;97.90
15483;DHT22;7843;50.330;7.312;2023-01-01T08:00:20;11.30;98.20
15483;DHT22;7843;50.330;7.312;2023-01-01T08:02:47;11.30;98.40
15483;DHT22;7843;50.330;7.312;2023-01-01T08:05:14;11.40;98.10
15483;DHT22;7843;50.330;7.312;2023-01-01T08:07:45;11.40;98.20
15483;DHT22;7843;50.330;7.312;2023-01-01T08:10:12;11.40;98.60
15483;DHT22;7843;50.330;7.312;2023-01-01T08:12:38;11.30;98.90
15483;DHT22;7843;50.330;7.312;2023-01-01T08:15:05;11.40;98.50
15483;DHT22;7843;50.330;7.312;2023-01-01T08:17:32;11.50;98.20
15483;DHT22;7843;50.330;7.312;2023-01-01T08:19:59;11.50;98.00
15483;DHT22;7843;50.330;7.312;2023-01-01T08:22:26;11.50;98.40
15483;DHT22;7843;50.330;7.312;2023-01-01T08:24:52;11.70;97.50
15483;DHT22;7843;50.330;7.312;2023-01-01T08:27:19;11.70;97.70
15483;DHT22;7843;50.330;7.312;2023-01-01T08:29:46;11.80;97.40
15483;DHT22;7843;50.330;7.312;2023-01-01T08:32:12;11.70;97.70
15483;DHT22;7843;50.330;7.312;2023-01-01T08:34:39;11.70;97.80
15483;DHT22;7843;50.330;7.312;2023-01-01T08:37:11;11.70;98.10
15483;DHT22;7843;50.330;7.312;2023-01-01T08:39:38;11.80;97.50
15483;DHT22;7843;50.330;7.312;2023-01-01T08:42:06;11.90;97.10
15483;DHT22;7843;50.330;7.312;2023-01-01T08:44:37;12.00;96.50
15483;DHT22;7843;50.330;7.312;2023-01-01T08:47:04;12.00;97.20
15483;DHT22;7843;50.330;7.312;2023-01-01T08:49:30;11.90;97.70
15483;DHT22;7843;50.330;7.312;2023-01-01T08:51:57;11.90;97.90
15483;DHT22;7843;50.330;7.312;2023-01-01T08:54:23;12.00;97.00
15483;DHT22;7843;50.330;7.312;2023-01-01T08:56:50;12.00;96.90
15483;DHT22;7843;50.330;7.312;2023-01-01T08:59:17;12.10;96.30
15483;DHT22;7843;50.330;7.312;2023-01-01T09:01:43;12.20;96.20
15483;DHT22;7843;50.330;7.312;2023-01-01T09:04:10;12.30;96.60
15483;DHT22;7843;50.330;7.312;2023-01-01T09:06:40;12.30;96.10
15483;DHT22;7843;50.330;7.312;2023-01-01T09:09:07;12.40;95.60
15483;DHT22;7843;50.330;7.312;2023-01-01T09:11:34;12.30;96.50
15483;DHT22;7843;50.330;7.312;2023-01-01T09:14:01;12.40;96.30
15483;DHT22;7843;50.330;7.312;2023-01-01T09:16:28;12.40;96.20
15483;DHT22;7843;50.330;7.312;2023-01-01T09:18:54;12.40;96.40
15483;DHT22;7843;50.330;7.312;2023-01-01T09:21:21;12.40;96.50
15483;DHT22;7843;50.330;7.312;2023-01-01T09:23:48;12.50;95.60
15483;DHT22;7843;50.330;7.312;2023-01-01T09:26:14;12.50;95.80
15483;DHT22;7843;50.330;7.312;2023-01-01T09:28:41;12.50;96.20
15483;DHT22;7843;50.330;7.312;2023-01-01T09:31:08;12.50;96.70
15483;DHT22;7843;50.330;7.312;2023-01-01T09:33:34;12.50;96.70
15483;DHT22;7843;50.330;7.312;2023-01-01T09:36:23;12.50;96.50
15483;DHT22;7843;50.330;7.312;2023-01-01T09:38:52;12.50;96.80
15483;DHT22;7843;50.330;7.312;2023-01-01T09:41:47;12.60;96.80
15483;DHT22;7843;50.330;7.312;2023-01-01T09:46:46;12.50;97.00
15483;DHT22;7843;50.330;7.312;2023-01-01T09:52:02;12.60;96.20
15483;DHT22;7843;50.330;7.312;2023-01-01T09:54:38;12.70;95.70
15483;DHT22;7843;50.330;7.312;2023-01-01T09:57:07;12.70;95.80
15483;DHT22;7843;50.330;7.312;2023-01-01T09:59:39;12.70;95.80
15483;DHT22;7843;50.330;7.312;2023-01-01T10:02:31;12.70;96.00
15483;DHT22;7843;50.330;7.312;2023-01-01T10:05:36;12.70;96.20
15483;DHT22;7843;50.330;7.312;2023-01-01T10:11:05;12.70;96.20
15483;DHT22;7843;50.330;7.312;2023-01-01T10:13:42;12.60;96.50
15483;DHT22;7843;50.330;7.312;2023-01-01T10:16:29;12.50;96.30
15483;DHT22;7843;50.330;7.312;2023-01-01T10:19:46;12.50;96.60
15483;DHT22;7843;50.330;7.312;2023-01-01T10:21:46;12.50;97.00
15483;DHT22;7843;50.330;7.312;2023-01-01T10:27:02;12.50;96.80
15483;DHT22;7843;50.330;7.312;2023-01-01T10:29:44;12.40;97.20
15483;DHT22;7843;50.330;7.312;2023-01-01T10:32:21;12.40;96.90
15483;DHT22;7843;50.330;7.312;2023-01-01T10:34:51;12.40;97.40
15483;DHT22;7843;50.330;7.312;2023-01-01T10:37:18;12.40;96.90
15483;DHT22;7843;50.330;7.312;2023-01-01T10:39:45;12.40;97.50
15483;DHT22;7843;50.330;7.312;2023-01-01T10:42:13;12.40;97.50
15483;DHT22;7843;50.330;7.312;2023-01-01T10:44:41;12.50;97.10
15483;DHT22;7843;50.330;7.312;2023-01-01T10:47:26;12.50;97.50
15483;DHT22;7843;50.330;7.312;2023-01-01T10:49:58;12.40;97.40
15483;DHT22;7843;50.330;7.312;2023-01-01T10:52:33;12.50;97.50
15483;DHT22;7843;50.330;7.312;2023-01-01T10:55:00;12.60;96.30
15483;DHT22;7843;50.330;7.312;2023-01-01T10:59:54;12.60;96.30
15483;DHT22;7843;50.330;7.312;2023-01-01T11:02:34;12.60;96.40
15483;DHT22;7843;50.330;7.312;2023-01-01T11:07:45;12.60;96.70
15483;DHT22;7843;50.330;7.312;2023-01-01T11:10:20;12.70;96.50
15483;DHT22;7843;50.330;7.312;2023-01-01T11:12:47;12.80;96.10
15483;DHT22;7843;50.330;7.312;2023-01-01T11:15:39;12.90;95.70
15483;DHT22;7843;50.330;7.312;2023-01-01T11:18:14;13.00;95.20
15483;DHT22;7843;50.330;7.312;2023-01-01T11:20:42;13.00;95.40
15483;DHT22;7843;50.330;7.312;2023-01-01T11:28:34;13.00;95.70
15483;DHT22;7843;50.330;7.312;2023-01-01T11:31:17;13.10;95.40
15483;DHT22;7843;50.330;7.312;2023-01-01T11:33:51;13.20;95.10
15483;DHT22;7843;50.330;7.312;2023-01-01T11:36:30;13.20;94.80
15483;DHT22;7843;50.330;7.312;2023-01-01T11:41:44;13.30;94.40
15483;DHT22;7843;50.330;7.312;2023-01-01T11:44:20;13.40;94.00
15483;DHT22;7843;50.330;7.312;2023-01-01T11:46:48;13.40;93.20
15483;DHT22;7843;50.330;7.312;2023-01-01T11:49:22;13.40;93.70
15483;DHT22;7843;50.330;7.312;2023-01-01T11:51:50;13.50;93.80
15483;DHT22;7843;50.330;7.312;2023-01-01T11:54:31;13.60;93.60
15483;DHT22;7843;50.330;7.312;2023-01-01T11:57:06;13.70;93.80
15483;DHT22;7843;50.330;7.312;2023-01-01T11:59:54;13.60;94.40
15483;DHT22;7843;50.330;7.312;2023-01-01T12:02:33;13.70;94.20
15483;DHT22;7843;50.330;7.312;2023-01-01T12:05:16;13.80;94.60
15483;DHT22;7843;50.330;7.312;2023-01-01T12:07:46;13.80;94.50
15483;DHT22;7843;50.330;7.312;2023-01-01T12:10:32;13.90;94.40
15483;DHT22;7843;50.330;7.312;2023-01-01T12:13:13;13.90;94.50
15483;DHT22;7843;50.330;7.312;2023-01-01T12:15:50;14.00;94.00
15483;DHT22;7843;50.330;7.312;2023-01-01T12:18:38;14.10;93.10
15483;DHT22;7843;50.330;7.312;2023-01-01T12:21:24;14.10;93.20
15483;DHT22;7843;50.330;7.312;2023-01-01T12:23:51;14.20;92.40
15483;DHT22;7843;50.330;7.312;2023-01-01T12:29:26;14.10;93.20
15483;DHT22;7843;50.330;7.312;2023-01-01T12:34:47;14.00;93.00
15483;DHT22;7843;50.330;7.312;2023-01-01T12:40:27;13.80;93.70
15483;DHT22;7843;50.330;7.312;2023-01-01T12:45:51;13.80;94.50
15483;DHT22;7843;50.330;7.312;2023-01-01T12:48:32;13.70;94.20
15483;DHT22;7843;50.330;7.312;2023-01-01T12:51:15;13.70;93.00
15483;DHT22;7843;50.330;7.312;2023-01-01T12:54:08;13.70;93.40
15483;DHT22;7843;50.330;7.312;2023-01-01T12:59:21;13.70;93.30
15483;DHT22;7843;50.330;7.312;2023-01-01T13:01:50;13.70;93.50
15483;DHT22;7843;50.330;7.312;2023-01-01T13:04:21;13.70;93.50
15483;DHT22;7843;50.330;7.312;2023-01-01T13:06:55;13.70;92.40
15483;DHT22;7843;50.330;7.312;2023-01-01T13:09:40;13.70;93.10
15483;DHT22;7843;50.330;7.312;2023-01-01T13:12:14;13.80;93.20
15483;DHT22;7843;50.330;7.312;2023-01-01T13:14:44;14.00;92.50
15483;DHT22;7843;50.330;7.312;2023-01-01T13:17:22;14.00;92.00
15483;DHT22;7843;50.330;7.312;2023-01-01T13:22:40;13.80;92.90
15483;DHT22;7843;50.330;7.312;2023-01-01T13:38:44;13.70;92.90
15483;DHT22;7843;50.330;7.312;2023-01-01T13:46:49;13.50;93.30
15483;DHT22;7843;50.330;7.312;2023-01-01T13:52:53;13.50;94.80
15483;DHT22;7843;50.330;7.312;2023-01-01T13:55:42;13.40;93.90
15483;DHT22;7843;50.330;7.312;2023-01-01T13:58:23;13.40;94.20
15483;DHT22;7843;50.330;7.312;2023-01-01T14:01:14;13.30;94.90
15483;DHT22;7843;50.330;7.312;2023-01-01T14:03:47;13.30;94.60
15483;DHT22;7843;50.330;7.312;2023-01-01T14:06:28;13.20;94.90
15483;DHT22;7843;50.330;7.312;2023-01-01T14:09:11;13.20;94.60
15483;DHT22;7843;50.330;7.312;2023-01-01T14:11:39;13.10;95.80
15483;DHT22;7843;50.330;7.312;2023-01-01T14:14:35;13.10;95.70
15483;DHT22;7843;50.330;7.312;2023-01-01T14:17:06;13.10;95.10
15483;DHT22;7843;50.330;7.312;2023-01-01T14:19:33;13.10;95.70
15483;DHT22;7843;50.330;7.312;2023-01-01T14:22:00;13.00;96.00
15483;DHT22;7843;50.330;7.312;2023-01-01T14:24:31;12.90;96.20
15483;DHT22;7843;50.330;7.312;2023-01-01T14:26:59;13.00;95.60
15483;DHT22;7843;50.330;7.312;2023-01-01T14:29:28;12.90;95.80
15483;DHT22;7843;50.330;7.312;2023-01-01T14:32:00;13.00;95.50
15483;DHT22;7843;50.330;7.312;2023-01-01T14:34:36;12.90;95.40
15483;DHT22;7843;50.330;7.312;2023-01-01T14:37:04;12.90;95.90
15483;DHT22;7843;50.330;7.312;2023-01-01T14:39:34;12.90;96.10
15483;DHT22;7843;50.330;7.312;2023-01-01T14:42:21;12.90;95.50
15483;DHT22;7843;50.330;7.312;2023-01-01T14:44:48;12.90;95.50
15483;DHT22;7843;50.330;7.312;2023-01-01T14:49:49;12.70;96.00
15483;DHT22;7843;50.330;7.312;2023-01-01T14:52:22;12.70;96.40
15483;DHT22;7843;50.330;7.312;2023-01-01T14:54:50;12.60;96.60
15483;DHT22;7843;50.330;7.312;2023-01-01T14:57:24;12.60;96.20
15483;DHT22;7843;50.330;7.312;2023-01-01T14:59:52;12.60;96.50
15483;DHT22;7843;50.330;7.312;2023-01-01T15:02:25;12.60;96.60
15483;DHT22;7843;50.330;7.312;2023-01-01T15:04:52;12.50;96.50
15483;DHT22;7843;50.330;7.312;2023-01-01T15:07:27;12.50;97.00
15483;DHT22;7843;50.330;7.312;2023-01-01T15:09:57;12.40;97.80
15483;DHT22;7843;50.330;7.312;2023-01-01T15:12:34;12.30;98.30
15483;DHT22;7843;50.330;7.312;2023-01-01T15:15:03;12.40;98.40
15483;DHT22;7843;50.330;7.312;2023-01-01T15:17:44;12.30;99.00
15483;DHT22;7843;50.330;7.312;2023-01-01T15:20:22;12.30;99.10
15483;DHT22;7843;50.330;7.312;2023-01-01T15:22:50;12.10;99.70
15483;DHT22;7843;50.330;7.312;2023-01-01T15:25:18;12.10;99.90
15483;DHT22;7843;50.330;7.312;2023-01-01T15:27:50;12.00;99.90
15483;DHT22;7843;50.330;7.312;2023-01-01T15:30:23;11.90;99.90
15483;DHT22;7843;50.330;7.312;2023-01-01T15:32:51;11.90;99.90
15483;DHT22;7843;50.330;7.312;2023-01-01T15:35:19;11.90;99.90
15483;DHT22;7843;50.330;7.312;2023-01-01T15:37:51;11.90;99.90
15483;DHT22;7843;50.330;7.312;2023-01-01T15:43:10;11.80;99.90
15483;DHT22;7843;50.330;7.312;2023-01-01T15:45:38;11.80;99.90
15483;DHT22;7843;50.330;7.312;2023-01-01T15:51:14;11.70;99.90
15483;DHT22;7843;50.330;7.312;2023-01-01T15:56:17;11.60;99.90
15483;DHT22;7843;50.330;7.312;2023-01-01T15:58:52;11.50;99.90
15483;DHT22;7843;50.330;7.312;2023-01-01T16:01:25;11.50;99.90
15483;DHT22;7843;50.330;7.312;2023-01-01T16:06:43;11.40;99.90
15483;DHT22;7843;50.330;7.312;2023-01-01T16:09:14;11.40;99.90
15483;DHT22;7843;50.330;7.312;2023-01-01T16:11:42;11.30;99.90
15483;DHT22;7843;50.330;7.312;2023-01-01T16:14:09;11.30;99.90
15483;DHT22;7843;50.330;7.312;2023-01-01T16:16:37;11.30;99.90
15483;DHT22;7843;50.330;7.312;2023-01-01T16:19:05;11.20;99.90
15483;DHT22;7843;50.330;7.312;2023-01-01T16:21:32;11.20;99.90
15483;DHT22;7843;50.330;7.312;2023-01-01T16:23:59;11.10;99.90
15483;DHT22;7843;50.330;7.312;2023-01-01T16:26:26;11.10;99.90
15483;DHT22;7843;50.330;7.312;2023-01-01T16:28:52;11.00;99.90
15483;DHT22;7843;50.330;7.312;2023-01-01T16:31:23;10.90;99.90
15483;DHT22;7843;50.330;7.312;2023-01-01T16:33:53;10.90;99.90
15483;DHT22;7843;50.330;7.312;2023-01-01T16:36:20;11.00;99.90
15483;DHT22;7843;50.330;7.312;2023-01-01T16:38:47;11.00;99.90
15483;DHT22;7843;50.330;7.312;2023-01-01T16:41:16;11.00;99.90
15483;DHT22;7843;50.330;7.312;2023-01-01T16:43:43;11.00;99.90
15483;DHT22;7843;50.330;7.312;2023-01-01T16:46:11;11.00;99.90
15483;DHT22;7843;50.330;7.312;2023-01-01T16:48:39;11.00;99.90
15483;DHT22;7843;50.330;7.312;2023-01-01T16:51:18;11.00;99.90
15483;DHT22;7843;50.330;7.312;2023-01-01T16:53:46;11.00;99.90
15483;DHT22;7843;50.330;7.312;2023-01-01T16:56:13;11.10;99.90
15483;DHT22;7843;50.330;7.312;2023-01-01T16:58:40;11.10;99.90
15483;DHT22;7843;50.330;7.312;2023-01-01T17:01:16;11.10;99.90
15483;DHT22;7843;50.330;7.312;2023-01-01T17:03:42;11.10;99.90
15483;DHT22;7843;50.330;7.312;2023-01-01T17:06:10;11.10;99.90
15483;DHT22;7843;50.330;7.312;2023-01-01T17:08:37;11.10;99.90
15483;DHT22;7843;50.330;7.312;2023-01-01T17:11:15;11.10;99.90
15483;DHT22;7843;50.330;7.312;2023-01-01T17:13:43;11.00;99.90
15483;DHT22;7843;50.330;7.312;2023-01-01T17:16:11;11.00;99.90
15483;DHT22;7843;50.330;7.312;2023-01-01T17:18:38;11.00;99.90
15483;DHT22;7843;50.330;7.312;2023-01-01T17:21:21;11.00;99.90
15483;DHT22;7843;50.330;7.312;2023-01-01T17:23:48;10.90;99.90
15483;DHT22;7843;50.330;7.312;2023-01-01T17:26:18;10.90;99.90
15483;DHT22;7843;50.330;7.312;2023-01-01T17:28:46;10.90;99.90
15483;DHT22;7843;50.330;7.312;2023-01-01T17:31:15;10.80;99.90
15483;DHT22;7843;50.330;7.312;2023-01-01T17:33:42;10.70;99.90
15483;DHT22;7843;50.330;7.312;2023-01-01T17:36:10;10.60;99.90
15483;DHT22;7843;50.330;7.312;2023-01-01T17:38:37;10.50;99.90
15483;DHT22;7843;50.330;7.312;2023-01-01T17:41:06;10.40;99.90
15483;DHT22;7843;50.330;7.312;2023-01-01T17:43:34;10.30;99.90
15483;DHT22;7843;50.330;7.312;2023-01-01T17:46:15;10.20;99.90
15483;DHT22;7843;50.330;7.312;2023-01-01T17:48:42;10.20;99.90
15483;DHT22;7843;50.330;7.312;2023-01-01T17:51:10;10.20;99.90
15483;DHT22;7843;50.330;7.312;2023-01-01T17:53:37;10.10;99.90
15483;DHT22;7843;50.330;7.312;2023-01-01T17:56:06;10.10;99.90
15483;DHT22;7843;50.330;7.312;2023-01-01T17:58:33;10.00;99.90
15483;DHT22;7843;50.330;7.312;2023-01-01T18:03:37;10.00;99.90